createdAt,value
2022-12-19T00:02:02.795Z,30.97
2022-12-19T00:04:33.462Z,32.00
2022-12-19T00:07:04.086Z,32.23
2022-12-19T00:09:33.253Z,29.87
2022-12-19T00:12:05.489Z,29.30
2022-12-19T00:14:36.149Z,29.53
2022-12-19T00:17:03.534Z,31.30
2022-12-19T00:19:32.069Z,29.63
2022-12-19T00:21:59.744Z,31.00
2022-12-19T00:24:27.716Z,31.30
2022-12-19T00:26:55.636Z,31.87
2022-12-19T00:29:25.547Z,30.70
2022-12-19T00:31:53.997Z,30.30
2022-12-19T00:34:23.704Z,31.47
2022-12-19T00:36:55.833Z,30.10
2022-12-19T00:39:24.762Z,30.13
2022-12-19T00:41:55.141Z,30.93
2022-12-19T00:44:25.372Z,29.83
2022-12-19T00:46:54.720Z,31.33
2022-12-19T00:49:22.521Z,30.87
2022-12-19T00:51:52.096Z,31.67
2022-12-19T00:54:19.537Z,30.27
2022-12-19T00:56:51.026Z,31.07
2022-12-19T00:59:23.958Z,29.80
2022-12-19T01:01:58.691Z,27.50
2022-12-19T01:04:28.864Z,28.40
2022-12-19T01:07:01.878Z,28.10
2022-12-19T01:09:33.360Z,28.30
2022-12-19T01:12:24.642Z,26.97
2022-12-19T01:15:04.688Z,28.20
2022-12-19T01:17:38.893Z,28.60
2022-12-19T01:20:16.251Z,28.10
2022-12-19T01:22:47.568Z,27.77
2022-12-19T01:25:19.023Z,28.30
2022-12-19T01:27:49.044Z,26.27
2022-12-19T01:30:20.557Z,28.53
2022-12-19T01:32:52.151Z,28.47
2022-12-19T01:35:21.638Z,27.07
2022-12-19T01:37:57.500Z,25.17
2022-12-19T01:40:37.273Z,27.73
2022-12-19T01:43:06.939Z,26.03
2022-12-19T01:45:45.225Z,26.30
2022-12-19T01:48:30.891Z,25.10
2022-12-19T01:51:23.484Z,26.83
2022-12-19T01:54:06.003Z,25.33
2022-12-19T01:56:38.316Z,28.33
2022-12-19T01:59:10.494Z,26.77
2022-12-19T02:01:51.603Z,27.60
2022-12-19T02:04:32.352Z,27.10
2022-12-19T02:07:15.274Z,29.00
2022-12-19T02:09:56.498Z,26.37
2022-12-19T02:12:30.829Z,27.70
2022-12-19T02:15:02.693Z,27.33
2022-12-19T02:17:55.816Z,28.20
2022-12-19T02:21:04.003Z,26.03
2022-12-19T02:23:58.135Z,26.50
2022-12-19T02:26:50.776Z,27.70
2022-12-19T02:30:03.959Z,25.73
2022-12-19T02:32:42.812Z,26.10
2022-12-19T02:35:40.783Z,24.53
2022-12-19T02:38:50.147Z,26.43
2022-12-19T02:41:55.127Z,24.50
2022-12-19T02:44:47.398Z,25.00
2022-12-19T02:47:22.285Z,27.03
2022-12-19T02:49:53.253Z,24.63
2022-12-19T02:52:23.471Z,27.30
2022-12-19T02:54:59.704Z,25.80
2022-12-19T02:57:35.659Z,26.10
2022-12-19T03:00:15.714Z,26.73
2022-12-19T03:03:11.764Z,25.13
2022-12-19T03:05:49.677Z,25.17
2022-12-19T03:08:32.954Z,26.03
2022-12-19T03:11:15.999Z,25.23
2022-12-19T03:14:05.850Z,23.53
2022-12-19T03:16:37.581Z,25.77
2022-12-19T03:19:14.707Z,25.20
2022-12-19T03:21:51.636Z,24.17
2022-12-19T03:24:20.823Z,24.57
2022-12-19T03:27:24.271Z,24.97
2022-12-19T03:30:06.065Z,26.53
2022-12-19T03:32:35.990Z,27.37
2022-12-19T03:35:13.287Z,25.77
2022-12-19T03:37:43.014Z,26.60
2022-12-19T03:40:18.701Z,25.33
2022-12-19T03:43:11.578Z,25.67
2022-12-19T03:46:07.569Z,27.53
2022-12-19T03:48:54.460Z,27.67
2022-12-19T03:51:54.949Z,26.60
2022-12-19T03:54:50.083Z,26.27
2022-12-19T03:57:57.707Z,25.60
2022-12-19T04:00:26.600Z,24.80
2022-12-19T04:02:57.115Z,24.13
2022-12-19T04:05:27.837Z,25.07
2022-12-19T04:08:08.942Z,24.73
2022-12-19T04:10:50.437Z,25.20
2022-12-19T04:13:28.355Z,24.00
2022-12-19T04:16:10.928Z,26.57
2022-12-19T04:18:43.657Z,25.00
2022-12-19T04:21:18.856Z,25.57
2022-12-19T04:23:55.167Z,23.80
2022-12-19T04:26:26.952Z,24.33
2022-12-19T04:29:02.446Z,25.53
2022-12-19T04:31:33.387Z,25.13
2022-12-19T04:34:03.985Z,29.47
2022-12-19T04:36:34.913Z,26.13
2022-12-19T04:39:05.391Z,24.77
2022-12-19T04:41:33.525Z,26.70
2022-12-19T04:44:04.468Z,25.63
2022-12-19T04:46:41.187Z,26.63
2022-12-19T04:49:12.383Z,26.53
2022-12-19T04:51:43.042Z,26.33
2022-12-19T04:54:11.568Z,27.20
2022-12-19T04:56:41.443Z,26.90
2022-12-19T04:59:12.376Z,26.80
2022-12-19T05:01:42.395Z,29.97
2022-12-19T05:04:12.616Z,27.43
2022-12-19T05:06:40.045Z,27.93
2022-12-19T05:09:10.047Z,27.97
2022-12-19T05:11:41.223Z,29.83
2022-12-19T05:14:12.067Z,29.80
2022-12-19T05:16:40.860Z,29.20
2022-12-19T05:19:08.179Z,28.83
2022-12-19T05:21:37.017Z,29.53
2022-12-19T05:24:06.084Z,29.77
2022-12-19T05:26:34.304Z,30.40
2022-12-19T05:29:03.360Z,28.90
2022-12-19T05:31:33.203Z,32.40
2022-12-19T05:34:04.130Z,30.93
2022-12-19T05:36:35.087Z,33.53
2022-12-19T05:39:03.933Z,30.40
2022-12-19T05:41:34.048Z,31.87
2022-12-19T05:44:04.400Z,32.73
2022-12-19T05:46:35.071Z,32.50
2022-12-19T05:49:04.799Z,35.07
2022-12-19T05:54:18.741Z,37.80
2022-12-19T05:56:47.450Z,35.03
2022-12-19T05:59:14.867Z,35.90
2022-12-19T06:01:43.910Z,40.20
2022-12-19T06:04:14.136Z,35.40
2022-12-19T06:06:42.651Z,36.23
2022-12-19T06:09:12.204Z,37.47
2022-12-19T06:11:39.561Z,36.97
2022-12-19T06:14:07.544Z,37.60
2022-12-19T06:16:34.925Z,43.57
2022-12-19T06:19:05.036Z,41.87
2022-12-19T06:21:35.102Z,37.83
2022-12-19T06:24:05.892Z,42.27
2022-12-19T06:26:34.669Z,42.90
2022-12-19T06:29:03.833Z,38.57
2022-12-19T06:31:33.531Z,44.17
2022-12-19T06:34:04.298Z,40.03
2022-12-19T06:36:32.767Z,41.57
2022-12-19T06:39:01.654Z,40.77
2022-12-19T06:41:50.086Z,41.20
2022-12-19T06:44:20.506Z,43.53
2022-12-19T06:46:51.587Z,40.33
2022-12-19T06:49:22.999Z,40.23
2022-12-19T06:51:54.745Z,36.97
2022-12-19T06:54:22.494Z,42.77
2022-12-19T06:56:54.204Z,36.63
2022-12-19T06:59:22.436Z,44.90
2022-12-19T07:01:54.931Z,41.10
2022-12-19T07:04:34.295Z,38.87
2022-12-19T07:07:04.658Z,37.93
2022-12-19T07:09:35.120Z,37.70
2022-12-19T07:12:05.906Z,38.37
2022-12-19T07:14:35.301Z,43.53
2022-12-19T07:17:06.970Z,38.93
2022-12-19T07:19:40.091Z,36.80
2022-12-19T07:22:09.939Z,36.77
2022-12-19T07:24:46.312Z,40.80
2022-12-19T07:27:17.377Z,35.13
2022-12-19T07:29:46.307Z,36.17
2022-12-19T07:32:14.425Z,39.13
2022-12-19T07:34:43.156Z,37.60
2022-12-19T07:37:13.098Z,39.40
2022-12-19T07:39:42.436Z,33.80
2022-12-19T07:42:13.420Z,37.40
2022-12-19T07:44:45.437Z,41.03
2022-12-19T07:50:02.235Z,38.27
2022-12-19T07:52:32.358Z,35.17
2022-12-19T07:55:05.029Z,38.00
2022-12-19T07:57:36.530Z,33.50
2022-12-19T08:00:06.535Z,36.47
2022-12-19T08:02:54.850Z,36.87
2022-12-19T08:05:28.384Z,39.23
2022-12-19T08:07:57.253Z,37.87
2022-12-19T08:10:25.456Z,37.97
2022-12-19T08:12:54.099Z,36.87
2022-12-19T08:15:25.522Z,36.57
2022-12-19T08:17:55.002Z,38.40
2022-12-19T08:20:23.664Z,35.83
2022-12-19T08:22:54.661Z,37.50
2022-12-19T08:25:24.577Z,35.97
2022-12-19T08:27:54.875Z,34.00
2022-12-19T08:30:24.296Z,35.83
2022-12-19T08:32:54.995Z,35.10
2022-12-19T08:35:24.843Z,39.83
2022-12-19T08:37:56.237Z,39.73
2022-12-19T08:40:24.947Z,38.20
2022-12-19T08:42:56.455Z,35.50
2022-12-19T08:45:23.929Z,37.47
2022-12-19T08:47:53.845Z,38.67
2022-12-19T08:50:33.963Z,36.00
2022-12-19T08:53:03.757Z,36.97
2022-12-19T08:55:34.537Z,36.27
2022-12-19T08:58:02.425Z,36.47
2022-12-19T09:00:32.339Z,35.43
2022-12-19T09:03:02.537Z,35.67
2022-12-19T09:08:15.155Z,39.53
2022-12-19T09:10:43.549Z,45.87
2022-12-19T09:13:15.359Z,49.60
2022-12-19T09:15:45.233Z,47.83
2022-12-19T09:18:14.463Z,40.50
2022-12-19T09:20:43.414Z,39.83
2022-12-19T09:23:14.399Z,40.77
2022-12-19T09:25:44.123Z,36.47
2022-12-19T09:28:28.476Z,37.17
2022-12-19T09:31:13.609Z,35.93
2022-12-19T09:33:44.416Z,45.47
2022-12-19T09:36:15.565Z,37.60
2022-12-19T09:38:43.802Z,38.00
2022-12-19T09:41:13.877Z,40.37
2022-12-19T09:44:23.286Z,39.17
2022-12-19T09:47:29.491Z,39.30
2022-12-19T09:50:00.276Z,37.80
2022-12-19T09:52:46.585Z,37.73
2022-12-19T09:55:31.861Z,37.10
2022-12-19T09:58:37.770Z,35.77
2022-12-19T10:01:16.265Z,36.47
2022-12-19T10:03:59.235Z,38.17
2022-12-19T10:07:12.405Z,38.77
2022-12-19T10:12:34.399Z,37.47
2022-12-19T10:12:47.795Z,36.13
2022-12-19T10:16:00.290Z,35.77
2022-12-19T10:18:56.777Z,34.80
2022-12-19T10:22:16.804Z,38.77
2022-12-19T10:25:12.916Z,38.27
2022-12-19T10:28:06.768Z,37.30
2022-12-19T10:30:52.878Z,35.53
2022-12-19T10:34:02.245Z,35.53
2022-12-19T10:37:12.384Z,37.20
2022-12-19T10:39:29.757Z,39.07
2022-12-19T10:42:20.885Z,36.50
2022-12-19T10:44:50.973Z,38.77
2022-12-19T10:47:21.477Z,38.77
2022-12-19T10:50:02.675Z,38.17
2022-12-19T10:53:12.679Z,41.47
2022-12-19T10:55:55.220Z,40.50
2022-12-19T10:58:34.306Z,40.93
2022-12-19T11:01:19.529Z,38.00
2022-12-19T11:04:21.431Z,39.43
2022-12-19T11:07:05.590Z,38.63
2022-12-19T11:09:44.568Z,41.70
2022-12-19T11:16:23.284Z,41.20
2022-12-19T11:18:56.700Z,38.73
2022-12-19T11:23:54.189Z,38.43
2022-12-19T11:29:25.557Z,40.43
2022-12-19T11:30:05.573Z,39.90
2022-12-19T11:30:26.149Z,38.77
2022-12-19T11:31:53.011Z,37.90
2022-12-19T11:33:25.209Z,41.77
2022-12-19T11:35:56.907Z,40.33
2022-12-19T11:38:50.970Z,40.37
2022-12-19T11:41:41.064Z,41.40
2022-12-19T11:45:16.084Z,37.93
2022-12-19T11:48:09.099Z,37.87
2022-12-19T11:51:07.223Z,36.60
2022-12-19T11:54:07.531Z,36.87
2022-12-19T11:56:36.826Z,39.57
2022-12-19T11:59:33.987Z,38.90
2022-12-19T12:02:20.949Z,37.47
2022-12-19T12:05:28.046Z,37.13
2022-12-19T12:10:38.491Z,37.90
2022-12-19T12:20:09.516Z,40.30
2022-12-19T12:23:42.638Z,38.27
2022-12-19T12:31:07.544Z,40.47
2022-12-19T12:31:19.240Z,37.40
2022-12-19T12:31:38.592Z,36.13
2022-12-19T12:31:48.339Z,36.87
2022-12-19T12:32:03.004Z,41.30
2022-12-19T12:35:51.087Z,35.37
2022-12-19T12:40:45.744Z,38.00
2022-12-19T12:43:53.958Z,39.57
2022-12-19T12:46:28.613Z,38.77
2022-12-19T12:49:45.885Z,39.73
2022-12-19T12:52:26.142Z,38.17
2022-12-19T12:54:55.646Z,36.57
2022-12-19T12:57:37.032Z,38.20
2022-12-19T13:00:32.954Z,36.77
2022-12-19T13:03:19.589Z,37.03
2022-12-19T13:05:56.145Z,39.30
2022-12-19T13:08:35.875Z,39.43
2022-12-19T13:12:07.616Z,40.93
2022-12-19T13:14:35.556Z,41.77
2022-12-19T13:20:51.006Z,43.27
2022-12-19T13:23:33.175Z,42.17
2022-12-19T13:26:02.918Z,45.43
2022-12-19T13:28:32.344Z,45.27
2022-12-19T13:31:19.450Z,44.00
2022-12-19T13:33:57.104Z,43.00
2022-12-19T13:39:49.009Z,44.40
2022-12-19T13:40:55.927Z,43.17
2022-12-19T13:43:48.198Z,42.87
2022-12-19T13:46:46.184Z,41.70
2022-12-19T13:49:34.196Z,43.87
2022-12-19T13:52:07.834Z,41.23
2022-12-19T13:54:48.408Z,42.93
2022-12-19T13:57:32.207Z,40.40
2022-12-19T14:00:04.185Z,42.80
2022-12-19T14:03:03.365Z,41.37
2022-12-19T14:06:17.507Z,42.60
2022-12-19T14:08:31.922Z,41.23
2022-12-19T14:11:42.317Z,43.10
2022-12-19T14:14:20.585Z,41.17
2022-12-19T14:17:05.261Z,38.93
2022-12-19T14:19:41.707Z,39.97
2022-12-19T14:22:31.055Z,39.83
2022-12-19T14:25:50.190Z,40.83
2022-12-19T14:28:20.708Z,41.30
2022-12-19T14:30:58.299Z,41.43
2022-12-19T14:34:04.629Z,38.40
2022-12-19T14:36:40.122Z,44.97
2022-12-19T14:39:23.171Z,40.73
2022-12-19T14:44:00.462Z,43.23
2022-12-19T14:54:06.893Z,42.27
2022-12-19T14:54:15.965Z,42.90
2022-12-19T14:54:26.178Z,43.57
2022-12-19T14:56:13.076Z,39.57
2022-12-19T14:58:52.847Z,41.43
2022-12-19T15:00:50.874Z,42.93
2022-12-19T15:03:33.529Z,43.60
2022-12-19T15:06:19.879Z,45.03
2022-12-19T15:10:40.863Z,45.67
2022-12-19T15:14:50.604Z,46.67
2022-12-19T15:15:25.328Z,45.77
2022-12-19T15:17:55.907Z,42.13
2022-12-19T15:20:25.869Z,43.40
2022-12-19T15:22:56.621Z,46.23
2022-12-19T15:26:02.332Z,46.80
2022-12-19T15:28:20.509Z,47.30
2022-12-19T15:31:02.702Z,50.43
2022-12-19T15:33:33.645Z,42.33
2022-12-19T15:36:06.930Z,44.60
2022-12-19T15:38:36.019Z,47.07
2022-12-19T15:41:13.826Z,39.93
2022-12-19T15:44:06.704Z,45.60
2022-12-19T15:46:38.851Z,44.63
2022-12-19T15:49:21.131Z,47.80
2022-12-19T15:51:53.412Z,47.07
2022-12-19T15:54:47.912Z,47.13
2022-12-19T15:57:26.900Z,47.67
2022-12-19T15:59:56.407Z,45.63
2022-12-19T16:02:42.787Z,45.20
2022-12-19T16:05:17.778Z,44.33
2022-12-19T16:07:45.262Z,49.13
2022-12-19T16:10:15.832Z,46.60
2022-12-19T16:12:58.174Z,49.60
2022-12-19T16:15:45.673Z,48.33
2022-12-19T16:18:16.016Z,55.13
2022-12-19T16:20:46.627Z,49.80
2022-12-19T16:23:18.053Z,47.73
2022-12-19T16:25:52.120Z,49.50
2022-12-19T16:28:31.916Z,47.90
2022-12-19T16:31:13.872Z,48.20
2022-12-19T16:33:42.517Z,46.73
2022-12-19T16:36:10.010Z,48.13
2022-12-19T16:38:39.814Z,49.27
2022-12-19T16:41:28.410Z,48.67
2022-12-19T16:43:57.638Z,47.87
2022-12-19T16:46:33.187Z,48.90
2022-12-19T16:49:03.270Z,51.80
2022-12-19T16:51:33.300Z,49.77
2022-12-19T16:56:47.367Z,55.83
2022-12-19T16:59:38.445Z,50.87
2022-12-19T17:02:28.713Z,54.90
2022-12-19T17:04:59.243Z,53.40
2022-12-19T17:10:16.824Z,48.80
2022-12-19T17:12:52.588Z,49.07
2022-12-19T17:15:29.680Z,49.20
2022-12-19T17:18:06.734Z,46.23
2022-12-19T17:20:41.865Z,48.27
2022-12-19T17:23:22.548Z,51.30
2022-12-19T17:25:51.678Z,51.13
2022-12-19T17:28:28.107Z,50.33
2022-12-19T17:30:58.957Z,50.87
2022-12-19T17:33:37.817Z,49.37
2022-12-19T17:36:07.107Z,47.07
2022-12-19T17:38:37.899Z,47.10
2022-12-19T17:43:52.859Z,45.80
2022-12-19T17:46:26.971Z,45.10
2022-12-19T17:48:57.928Z,45.87
2022-12-19T17:51:26.296Z,46.70
2022-12-19T17:53:57.498Z,45.63
2022-12-19T17:56:25.313Z,48.67
2022-12-19T17:58:56.897Z,47.67
2022-12-19T18:01:25.627Z,47.70
2022-12-19T18:03:56.730Z,49.47
2022-12-19T18:06:28.176Z,46.43
2022-12-19T18:08:56.895Z,50.37
2022-12-19T18:11:26.099Z,50.40
2022-12-19T18:13:57.537Z,52.23
2022-12-19T18:16:28.311Z,46.60
2022-12-19T18:18:57.105Z,47.90
2022-12-19T18:21:28.338Z,47.13
2022-12-19T18:23:59.676Z,47.77
2022-12-19T18:26:28.179Z,49.63
2022-12-19T18:29:00.780Z,45.57
2022-12-19T18:31:31.311Z,51.37
2022-12-19T18:34:12.682Z,47.13
2022-12-19T18:36:44.371Z,47.37
2022-12-19T18:39:31.003Z,48.73
2022-12-19T18:41:59.592Z,48.63
2022-12-19T18:44:30.979Z,44.40
2022-12-19T18:47:01.128Z,45.57
2022-12-19T18:49:34.672Z,45.73
2022-12-19T18:52:02.363Z,47.83
2022-12-19T18:54:33.349Z,48.93
2022-12-19T18:57:03.677Z,47.37
2022-12-19T18:59:34.345Z,44.47
2022-12-19T19:02:07.309Z,44.43
2022-12-19T19:04:37.719Z,48.37
2022-12-19T19:07:10.136Z,44.53
2022-12-19T19:09:38.811Z,44.80
2022-12-19T19:12:28.116Z,47.67
2022-12-19T19:14:58.223Z,46.53
2022-12-19T19:17:29.142Z,46.10
2022-12-19T19:20:00.110Z,46.00
2022-12-19T19:22:29.866Z,42.73
2022-12-19T19:24:59.687Z,43.43
2022-12-19T19:27:28.810Z,46.80
2022-12-19T19:29:57.551Z,46.57
2022-12-19T19:32:28.738Z,44.50
2022-12-19T19:34:59.974Z,43.70
2022-12-19T19:40:13.731Z,43.80
2022-12-19T19:42:41.547Z,42.83
2022-12-19T19:45:12.997Z,43.63
2022-12-19T19:47:43.387Z,45.70
2022-12-19T19:50:12.668Z,45.63
2022-12-19T19:52:43.188Z,47.63
2022-12-19T19:55:15.662Z,46.30
2022-12-19T19:57:43.803Z,47.83
2022-12-19T20:00:13.118Z,49.03
2022-12-19T20:02:42.289Z,48.13
2022-12-19T20:05:14.465Z,46.57
2022-12-19T20:07:43.614Z,46.20
2022-12-19T20:10:11.810Z,45.53
2022-12-19T20:12:41.880Z,49.43
2022-12-19T20:15:12.969Z,46.00
2022-12-19T20:17:42.489Z,48.93
2022-12-19T20:20:13.159Z,42.73
2022-12-19T20:22:42.710Z,44.30
2022-12-19T20:25:13.810Z,46.73
2022-12-19T20:27:41.544Z,47.53
2022-12-19T20:30:12.953Z,46.97
2022-12-19T20:32:41.636Z,46.57
2022-12-19T20:35:14.769Z,48.67
2022-12-19T20:37:47.347Z,47.27
2022-12-19T20:40:14.909Z,43.97
2022-12-19T20:42:42.449Z,47.40
2022-12-19T20:45:10.553Z,46.73
2022-12-19T20:47:42.422Z,48.53
2022-12-19T20:50:12.828Z,44.77
2022-12-19T20:52:40.231Z,44.27
2022-12-19T20:55:12.230Z,46.30
2022-12-19T20:57:42.291Z,46.73
2022-12-19T21:00:14.879Z,49.87
2022-12-19T21:03:24.845Z,48.40
2022-12-19T21:05:33.338Z,50.00
2022-12-19T21:08:02.851Z,44.10
2022-12-19T21:10:33.777Z,48.03
2022-12-19T21:13:03.706Z,44.97
2022-12-19T21:15:32.495Z,47.57
2022-12-19T21:18:02.928Z,47.40
2022-12-19T21:20:34.658Z,46.10
2022-12-19T21:23:02.641Z,47.00
2022-12-19T21:25:33.627Z,42.80
2022-12-19T21:28:02.445Z,44.77
2022-12-19T21:30:30.245Z,46.37
2022-12-19T21:32:58.627Z,45.07
2022-12-19T21:35:29.669Z,44.33
2022-12-19T21:37:58.768Z,45.17
2022-12-19T21:40:30.085Z,46.10
2022-12-19T21:42:59.473Z,45.63
2022-12-19T21:45:29.624Z,46.03
2022-12-19T21:47:59.765Z,43.50
2022-12-19T21:50:29.636Z,45.80
2022-12-19T21:53:00.246Z,46.03
2022-12-19T21:55:28.663Z,42.90
2022-12-19T21:57:56.321Z,43.03
2022-12-19T22:00:25.237Z,45.20
2022-12-19T22:03:13.260Z,43.47
2022-12-19T22:05:46.048Z,46.60
2022-12-19T22:08:13.626Z,43.63
2022-12-19T22:10:42.472Z,43.27
2022-12-19T22:13:10.354Z,45.93
2022-12-19T22:15:40.317Z,45.53
2022-12-19T22:18:07.801Z,44.27
2022-12-19T22:20:46.203Z,41.90
2022-12-19T22:23:13.810Z,44.37
2022-12-19T22:25:42.235Z,44.00
2022-12-19T22:28:10.992Z,44.93
2022-12-19T22:30:39.826Z,44.40
2022-12-19T22:33:09.856Z,43.70
2022-12-19T22:35:38.718Z,42.77
2022-12-19T22:38:09.622Z,45.13
2022-12-19T22:40:37.418Z,46.93
2022-12-19T22:43:06.209Z,46.30
2022-12-19T22:45:35.829Z,46.57
2022-12-19T22:48:06.773Z,47.43
2022-12-19T22:50:34.227Z,46.83
2022-12-19T22:53:05.918Z,43.53
2022-12-19T22:55:40.867Z,47.70
2022-12-19T22:58:09.400Z,43.63
2022-12-19T23:00:38.613Z,45.97
2022-12-19T23:03:09.478Z,48.27
2022-12-19T23:05:39.589Z,49.13
2022-12-19T23:08:08.205Z,50.53
2022-12-19T23:10:36.896Z,41.83
2022-12-19T23:13:07.785Z,43.27
2022-12-19T23:15:38.560Z,48.13
2022-12-19T23:18:10.601Z,45.77
2022-12-19T23:20:39.364Z,43.23
2022-12-19T23:23:11.007Z,41.27
2022-12-19T23:25:42.730Z,42.93
2022-12-19T23:28:12.683Z,42.33
2022-12-19T23:30:41.577Z,40.30
2022-12-19T23:33:09.153Z,40.90
2022-12-19T23:35:36.571Z,39.87
2022-12-19T23:38:05.624Z,40.63
2022-12-19T23:40:33.554Z,41.90
2022-12-19T23:43:02.782Z,42.43
2022-12-19T23:45:31.232Z,40.63
2022-12-19T23:48:01.321Z,40.03
2022-12-19T23:50:29.198Z,40.40
2022-12-19T23:55:39.046Z,40.17
2022-12-19T23:58:15.567Z,45.20
